sensor_id;sensor_type;location;lat;lon;timestamp;P1;durP1;ratioP1;P2;durP2;ratioP2
18596;SDS011;9428;50.950;6.912;2022-07-25T00:00:42;7.32;;;5.10;;
18596;SDS011;9428;50.950;6.912;2022-07-25T00:03:30;10.15;;;4.78;;
18596;SDS011;9428;50.950;6.912;2022-07-25T00:06:18;7.22;;;5.35;;
18596;SDS011;9428;50.950;6.912;2022-07-25T00:09:05;5.63;;;4.90;;
18596;SDS011;9428;50.950;6.912;2022-07-25T00:11:53;7.15;;;5.30;;
18596;SDS011;9428;50.950;6.912;2022-07-25T00:14:40;8.60;;;4.75;;
18596;SDS011;9428;50.950;6.912;2022-07-25T00:17:28;7.43;;;5.90;;
18596;SDS011;9428;50.950;6.912;2022-07-25T00:20:15;6.85;;;5.32;;
18596;SDS011;9428;50.950;6.912;2022-07-25T00:23:04;6.43;;;4.95;;
18596;SDS011;9428;50.950;6.912;2022-07-25T00:25:51;7.07;;;5.10;;
18596;SDS011;9428;50.950;6.912;2022-07-25T00:28:38;6.68;;;5.20;;
18596;SDS011;9428;50.950;6.912;2022-07-25T00:31:25;6.25;;;5.10;;
18596;SDS011;9428;50.950;6.912;2022-07-25T00:34:13;7.53;;;5.30;;
18596;SDS011;9428;50.950;6.912;2022-07-25T00:37:00;9.55;;;5.30;;
18596;SDS011;9428;50.950;6.912;2022-07-25T00:39:48;5.95;;;5.15;;
18596;SDS011;9428;50.950;6.912;2022-07-25T00:42:36;8.25;;;5.32;;
18596;SDS011;9428;50.950;6.912;2022-07-25T00:45:23;8.23;;;4.90;;
18596;SDS011;9428;50.950;6.912;2022-07-25T00:48:10;7.93;;;4.93;;
18596;SDS011;9428;50.950;6.912;2022-07-25T00:50:58;8.48;;;5.25;;
18596;SDS011;9428;50.950;6.912;2022-07-25T00:53:45;7.78;;;5.95;;
18596;SDS011;9428;50.950;6.912;2022-07-25T00:56:34;6.72;;;5.50;;
18596;SDS011;9428;50.950;6.912;2022-07-25T00:59:21;9.48;;;5.40;;
18596;SDS011;9428;50.950;6.912;2022-07-25T01:02:09;6.53;;;5.68;;
18596;SDS011;9428;50.950;6.912;2022-07-25T01:04:56;6.85;;;5.60;;
18596;SDS011;9428;50.950;6.912;2022-07-25T01:07:43;8.50;;;5.93;;
18596;SDS011;9428;50.950;6.912;2022-07-25T01:10:32;10.43;;;5.13;;
18596;SDS011;9428;50.950;6.912;2022-07-25T01:13:21;7.85;;;5.53;;
18596;SDS011;9428;50.950;6.912;2022-07-25T01:16:08;7.63;;;5.30;;
18596;SDS011;9428;50.950;6.912;2022-07-25T01:18:55;6.78;;;5.45;;
18596;SDS011;9428;50.950;6.912;2022-07-25T01:21:44;8.70;;;5.50;;
18596;SDS011;9428;50.950;6.912;2022-07-25T01:24:32;7.53;;;5.68;;
18596;SDS011;9428;50.950;6.912;2022-07-25T01:27:20;7.65;;;5.93;;
18596;SDS011;9428;50.950;6.912;2022-07-25T01:30:08;9.35;;;5.72;;
18596;SDS011;9428;50.950;6.912;2022-07-25T01:32:57;9.02;;;5.22;;
18596;SDS011;9428;50.950;6.912;2022-07-25T01:35:44;7.63;;;5.60;;
18596;SDS011;9428;50.950;6.912;2022-07-25T01:38:34;9.25;;;5.70;;
18596;SDS011;9428;50.950;6.912;2022-07-25T01:41:21;9.55;;;5.57;;
18596;SDS011;9428;50.950;6.912;2022-07-25T01:44:08;6.22;;;5.47;;
18596;SDS011;9428;50.950;6.912;2022-07-25T01:46:55;8.60;;;5.75;;
18596;SDS011;9428;50.950;6.912;2022-07-25T01:49:43;10.55;;;5.95;;
18596;SDS011;9428;50.950;6.912;2022-07-25T01:52:30;7.80;;;6.28;;
18596;SDS011;9428;50.950;6.912;2022-07-25T01:55:19;8.02;;;5.70;;
18596;SDS011;9428;50.950;6.912;2022-07-25T01:58:06;8.68;;;5.80;;
18596;SDS011;9428;50.950;6.912;2022-07-25T02:00:55;8.52;;;5.75;;
18596;SDS011;9428;50.950;6.912;2022-07-25T02:03:42;7.28;;;5.70;;
18596;SDS011;9428;50.950;6.912;2022-07-25T02:06:29;8.32;;;5.57;;
18596;SDS011;9428;50.950;6.912;2022-07-25T02:09:18;8.02;;;5.88;;
18596;SDS011;9428;50.950;6.912;2022-07-25T02:12:07;6.07;;;5.10;;
18596;SDS011;9428;50.950;6.912;2022-07-25T02:14:55;7.22;;;6.07;;
18596;SDS011;9428;50.950;6.912;2022-07-25T02:17:42;8.27;;;5.35;;
18596;SDS011;9428;50.950;6.912;2022-07-25T02:20:29;8.25;;;5.70;;
18596;SDS011;9428;50.950;6.912;2022-07-25T02:23:16;11.50;;;6.22;;
18596;SDS011;9428;50.950;6.912;2022-07-25T02:26:03;9.23;;;6.13;;
18596;SDS011;9428;50.950;6.912;2022-07-25T02:28:52;7.00;;;6.10;;
18596;SDS011;9428;50.950;6.912;2022-07-25T02:31:39;8.02;;;6.13;;
18596;SDS011;9428;50.950;6.912;2022-07-25T02:34:27;8.98;;;6.18;;
18596;SDS011;9428;50.950;6.912;2022-07-25T02:37:14;7.13;;;5.80;;
18596;SDS011;9428;50.950;6.912;2022-07-25T02:40:01;6.82;;;5.75;;
18596;SDS011;9428;50.950;6.912;2022-07-25T02:42:49;7.30;;;5.45;;
18596;SDS011;9428;50.950;6.912;2022-07-25T02:45:37;7.40;;;5.97;;
18596;SDS011;9428;50.950;6.912;2022-07-25T02:48:25;8.95;;;6.32;;
18596;SDS011;9428;50.950;6.912;2022-07-25T02:51:12;7.43;;;5.97;;
18596;SDS011;9428;50.950;6.912;2022-07-25T02:53:59;7.20;;;5.75;;
18596;SDS011;9428;50.950;6.912;2022-07-25T02:56:47;7.60;;;5.78;;
18596;SDS011;9428;50.950;6.912;2022-07-25T02:59:34;7.80;;;5.53;;
18596;SDS011;9428;50.950;6.912;2022-07-25T03:02:23;9.15;;;5.75;;
18596;SDS011;9428;50.950;6.912;2022-07-25T03:05:11;9.93;;;5.70;;
18596;SDS011;9428;50.950;6.912;2022-07-25T03:08:00;6.57;;;5.88;;
18596;SDS011;9428;50.950;6.912;2022-07-25T03:10:47;7.53;;;5.53;;
18596;SDS011;9428;50.950;6.912;2022-07-25T03:13:34;7.05;;;5.78;;
18596;SDS011;9428;50.950;6.912;2022-07-25T03:16:21;7.28;;;5.90;;
18596;SDS011;9428;50.950;6.912;2022-07-25T03:19:10;7.57;;;5.72;;
18596;SDS011;9428;50.950;6.912;2022-07-25T03:21:58;7.88;;;5.72;;
18596;SDS011;9428;50.950;6.912;2022-07-25T03:24:45;7.20;;;5.38;;
18596;SDS011;9428;50.950;6.912;2022-07-25T03:27:33;6.57;;;5.60;;
18596;SDS011;9428;50.950;6.912;2022-07-25T03:30:20;6.85;;;5.50;;
18596;SDS011;9428;50.950;6.912;2022-07-25T03:33:08;7.60;;;6.80;;
18596;SDS011;9428;50.950;6.912;2022-07-25T03:35:57;9.20;;;6.25;;
18596;SDS011;9428;50.950;6.912;2022-07-25T03:38:44;7.28;;;5.88;;
18596;SDS011;9428;50.950;6.912;2022-07-25T03:41:31;5.72;;;5.13;;
18596;SDS011;9428;50.950;6.912;2022-07-25T03:44:18;8.70;;;5.95;;
18596;SDS011;9428;50.950;6.912;2022-07-25T03:47:05;8.05;;;6.35;;
18596;SDS011;9428;50.950;6.912;2022-07-25T03:49:53;7.82;;;5.60;;
18596;SDS011;9428;50.950;6.912;2022-07-25T03:52:41;8.55;;;5.95;;
18596;SDS011;9428;50.950;6.912;2022-07-25T03:55:29;8.93;;;5.53;;
18596;SDS011;9428;50.950;6.912;2022-07-25T03:58:16;7.13;;;5.57;;
18596;SDS011;9428;50.950;6.912;2022-07-25T04:01:03;10.10;;;5.88;;
18596;SDS011;9428;50.950;6.912;2022-07-25T04:03:51;6.57;;;5.72;;
18596;SDS011;9428;50.950;6.912;2022-07-25T04:06:39;6.57;;;5.88;;
18596;SDS011;9428;50.950;6.912;2022-07-25T04:09:27;7.85;;;6.35;;
18596;SDS011;9428;50.950;6.912;2022-07-25T04:12:15;10.43;;;6.18;;
18596;SDS011;9428;50.950;6.912;2022-07-25T04:15:02;8.77;;;5.78;;
18596;SDS011;9428;50.950;6.912;2022-07-25T04:17:50;6.30;;;5.70;;
18596;SDS011;9428;50.950;6.912;2022-07-25T04:20:37;6.63;;;5.70;;
18596;SDS011;9428;50.950;6.912;2022-07-25T04:23:24;8.18;;;6.07;;
18596;SDS011;9428;50.950;6.912;2022-07-25T04:26:14;8.15;;;6.10;;
18596;SDS011;9428;50.950;6.912;2022-07-25T04:29:02;10.23;;;6.30;;
18596;SDS011;9428;50.950;6.912;2022-07-25T04:31:49;7.97;;;6.03;;
18596;SDS011;9428;50.950;6.912;2022-07-25T04:34:36;10.25;;;5.32;;
18596;SDS011;9428;50.950;6.912;2022-07-25T04:37:23;6.72;;;5.65;;
18596;SDS011;9428;50.950;6.912;2022-07-25T04:40:11;7.28;;;5.63;;
18596;SDS011;9428;50.950;6.912;2022-07-25T04:43:00;9.60;;;5.63;;
18596;SDS011;9428;50.950;6.912;2022-07-25T04:45:47;8.43;;;5.32;;
18596;SDS011;9428;50.950;6.912;2022-07-25T04:48:34;7.43;;;5.95;;
18596;SDS011;9428;50.950;6.912;2022-07-25T04:51:21;6.88;;;5.55;;
18596;SDS011;9428;50.950;6.912;2022-07-25T04:54:09;7.35;;;5.90;;
18596;SDS011;9428;50.950;6.912;2022-07-25T04:56:56;8.05;;;5.68;;
18596;SDS011;9428;50.950;6.912;2022-07-25T04:59:45;9.10;;;5.70;;
18596;SDS011;9428;50.950;6.912;2022-07-25T05:02:33;11.82;;;5.90;;
18596;SDS011;9428;50.950;6.912;2022-07-25T05:05:20;8.45;;;5.30;;
18596;SDS011;9428;50.950;6.912;2022-07-25T05:08:07;10.68;;;5.97;;
18596;SDS011;9428;50.950;6.912;2022-07-25T05:10:55;12.00;;;6.05;;
18596;SDS011;9428;50.950;6.912;2022-07-25T05:13:42;11.68;;;5.63;;
18596;SDS011;9428;50.950;6.912;2022-07-25T05:16:31;7.95;;;5.82;;
18596;SDS011;9428;50.950;6.912;2022-07-25T05:19:18;9.68;;;5.55;;
18596;SDS011;9428;50.950;6.912;2022-07-25T05:22:05;7.22;;;5.45;;
18596;SDS011;9428;50.950;6.912;2022-07-25T05:24:52;8.02;;;5.15;;
18596;SDS011;9428;50.950;6.912;2022-07-25T05:27:40;6.70;;;5.28;;
18596;SDS011;9428;50.950;6.912;2022-07-25T05:30:27;6.28;;;5.68;;
18596;SDS011;9428;50.950;6.912;2022-07-25T05:33:16;7.57;;;5.35;;
18596;SDS011;9428;50.950;6.912;2022-07-25T05:36:03;6.22;;;4.88;;
18596;SDS011;9428;50.950;6.912;2022-07-25T05:38:50;7.35;;;5.55;;
18596;SDS011;9428;50.950;6.912;2022-07-25T05:41:38;8.13;;;5.63;;
18596;SDS011;9428;50.950;6.912;2022-07-25T05:44:25;6.15;;;5.55;;
18596;SDS011;9428;50.950;6.912;2022-07-25T05:47:13;5.95;;;5.28;;
18596;SDS011;9428;50.950;6.912;2022-07-25T05:50:01;8.38;;;5.57;;
18596;SDS011;9428;50.950;6.912;2022-07-25T05:52:49;7.85;;;5.75;;
18596;SDS011;9428;50.950;6.912;2022-07-25T05:55:36;7.63;;;6.30;;
18596;SDS011;9428;50.950;6.912;2022-07-25T05:58:23;8.40;;;5.60;;
18596;SDS011;9428;50.950;6.912;2022-07-25T06:01:11;9.80;;;5.57;;
18596;SDS011;9428;50.950;6.912;2022-07-25T06:03:59;7.55;;;5.90;;
18596;SDS011;9428;50.950;6.912;2022-07-25T06:06:48;6.63;;;5.85;;
18596;SDS011;9428;50.950;6.912;2022-07-25T06:09:36;7.55;;;5.63;;
18596;SDS011;9428;50.950;6.912;2022-07-25T06:12:23;9.77;;;5.82;;
18596;SDS011;9428;50.950;6.912;2022-07-25T06:15:11;12.43;;;5.75;;
18596;SDS011;9428;50.950;6.912;2022-07-25T06:17:58;7.28;;;5.32;;
18596;SDS011;9428;50.950;6.912;2022-07-25T06:20:45;8.32;;;5.55;;
18596;SDS011;9428;50.950;6.912;2022-07-25T06:23:34;11.30;;;6.53;;
18596;SDS011;9428;50.950;6.912;2022-07-25T06:26:21;8.15;;;5.82;;
18596;SDS011;9428;50.950;6.912;2022-07-25T06:29:09;6.65;;;5.25;;
18596;SDS011;9428;50.950;6.912;2022-07-25T06:31:56;8.35;;;6.15;;
18596;SDS011;9428;50.950;6.912;2022-07-25T06:34:44;9.65;;;6.05;;
18596;SDS011;9428;50.950;6.912;2022-07-25T06:37:31;9.00;;;5.40;;
18596;SDS011;9428;50.950;6.912;2022-07-25T06:40:23;7.18;;;5.80;;
18596;SDS011;9428;50.950;6.912;2022-07-25T06:43:10;6.88;;;5.85;;
18596;SDS011;9428;50.950;6.912;2022-07-25T06:45:57;7.60;;;5.82;;
18596;SDS011;9428;50.950;6.912;2022-07-25T06:48:45;8.23;;;5.43;;
18596;SDS011;9428;50.950;6.912;2022-07-25T06:51:32;13.25;;;5.97;;
18596;SDS011;9428;50.950;6.912;2022-07-25T06:54:20;6.20;;;5.60;;
18596;SDS011;9428;50.950;6.912;2022-07-25T06:57:08;11.02;;;5.93;;
18596;SDS011;9428;50.950;6.912;2022-07-25T06:59:55;7.50;;;5.85;;
18596;SDS011;9428;50.950;6.912;2022-07-25T07:02:47;7.15;;;5.68;;
18596;SDS011;9428;50.950;6.912;2022-07-25T07:05:35;8.15;;;5.10;;
18596;SDS011;9428;50.950;6.912;2022-07-25T07:08:25;7.13;;;5.63;;
18596;SDS011;9428;50.950;6.912;2022-07-25T07:11:12;10.20;;;5.78;;
18596;SDS011;9428;50.950;6.912;2022-07-25T07:14:02;7.32;;;5.15;;
18596;SDS011;9428;50.950;6.912;2022-07-25T07:16:50;6.97;;;5.38;;
18596;SDS011;9428;50.950;6.912;2022-07-25T07:19:37;6.97;;;5.18;;
18596;SDS011;9428;50.950;6.912;2022-07-25T07:22:28;8.60;;;5.97;;
18596;SDS011;9428;50.950;6.912;2022-07-25T07:25:16;11.38;;;6.22;;
18596;SDS011;9428;50.950;6.912;2022-07-25T07:28:05;10.35;;;5.50;;
18596;SDS011;9428;50.950;6.912;2022-07-25T07:30:54;7.82;;;5.53;;
18596;SDS011;9428;50.950;6.912;2022-07-25T07:33:42;8.70;;;6.47;;
18596;SDS011;9428;50.950;6.912;2022-07-25T07:36:30;8.00;;;6.13;;
18596;SDS011;9428;50.950;6.912;2022-07-25T07:39:17;7.38;;;5.75;;
18596;SDS011;9428;50.950;6.912;2022-07-25T07:42:04;13.55;;;6.10;;
18596;SDS011;9428;50.950;6.912;2022-07-25T07:44:51;9.52;;;6.18;;
18596;SDS011;9428;50.950;6.912;2022-07-25T07:47:40;10.88;;;6.50;;
18596;SDS011;9428;50.950;6.912;2022-07-25T07:50:28;7.53;;;5.38;;
18596;SDS011;9428;50.950;6.912;2022-07-25T07:53:15;8.10;;;5.82;;
18596;SDS011;9428;50.950;6.912;2022-07-25T07:56:02;8.55;;;5.72;;
18596;SDS011;9428;50.950;6.912;2022-07-25T07:58:49;8.77;;;5.78;;
18596;SDS011;9428;50.950;6.912;2022-07-25T08:01:36;9.98;;;5.78;;
18596;SDS011;9428;50.950;6.912;2022-07-25T08:04:24;7.35;;;5.50;;
18596;SDS011;9428;50.950;6.912;2022-07-25T08:07:11;12.27;;;6.50;;
18596;SDS011;9428;50.950;6.912;2022-07-25T08:09:59;9.18;;;5.78;;
18596;SDS011;9428;50.950;6.912;2022-07-25T08:12:46;9.35;;;5.50;;
18596;SDS011;9428;50.950;6.912;2022-07-25T08:15:33;7.30;;;6.00;;
18596;SDS011;9428;50.950;6.912;2022-07-25T08:18:20;8.77;;;5.85;;
18596;SDS011;9428;50.950;6.912;2022-07-25T08:21:09;9.63;;;5.97;;
18596;SDS011;9428;50.950;6.912;2022-07-25T08:23:56;9.70;;;5.80;;
18596;SDS011;9428;50.950;6.912;2022-07-25T08:26:44;9.73;;;6.15;;
18596;SDS011;9428;50.950;6.912;2022-07-25T08:29:31;10.60;;;6.07;;
18596;SDS011;9428;50.950;6.912;2022-07-25T08:32:18;10.88;;;5.90;;
18596;SDS011;9428;50.950;6.912;2022-07-25T08:35:06;12.15;;;7.93;;
18596;SDS011;9428;50.950;6.912;2022-07-25T08:37:55;9.20;;;6.55;;
18596;SDS011;9428;50.950;6.912;2022-07-25T08:40:43;9.80;;;5.80;;
18596;SDS011;9428;50.950;6.912;2022-07-25T08:43:31;9.35;;;6.03;;
18596;SDS011;9428;50.950;6.912;2022-07-25T08:46:22;5.95;;;5.03;;
18596;SDS011;9428;50.950;6.912;2022-07-25T08:49:09;9.10;;;5.75;;
18596;SDS011;9428;50.950;6.912;2022-07-25T08:51:57;8.10;;;5.65;;
18596;SDS011;9428;50.950;6.912;2022-07-25T08:54:46;7.85;;;5.95;;
18596;SDS011;9428;50.950;6.912;2022-07-25T08:57:34;6.93;;;4.97;;
18596;SDS011;9428;50.950;6.912;2022-07-25T09:00:26;11.52;;;5.93;;
18596;SDS011;9428;50.950;6.912;2022-07-25T09:03:14;9.45;;;5.00;;
18596;SDS011;9428;50.950;6.912;2022-07-25T09:06:05;10.50;;;5.55;;
18596;SDS011;9428;50.950;6.912;2022-07-25T09:09:00;7.45;;;5.05;;
18596;SDS011;9428;50.950;6.912;2022-07-25T09:11:50;11.13;;;5.88;;
18596;SDS011;9428;50.950;6.912;2022-07-25T09:14:41;8.38;;;5.47;;
18596;SDS011;9428;50.950;6.912;2022-07-25T09:17:28;7.05;;;5.18;;
18596;SDS011;9428;50.950;6.912;2022-07-25T09:20:15;6.78;;;5.07;;
18596;SDS011;9428;50.950;6.912;2022-07-25T09:23:03;6.32;;;5.40;;
18596;SDS011;9428;50.950;6.912;2022-07-25T09:25:50;8.63;;;5.10;;
18596;SDS011;9428;50.950;6.912;2022-07-25T09:28:40;9.25;;;5.18;;
18596;SDS011;9428;50.950;6.912;2022-07-25T09:31:30;11.68;;;5.00;;
18596;SDS011;9428;50.950;6.912;2022-07-25T09:34:32;10.25;;;6.63;;
18596;SDS011;9428;50.950;6.912;2022-07-25T09:37:24;8.88;;;6.13;;
18596;SDS011;9428;50.950;6.912;2022-07-25T09:40:13;7.93;;;5.85;;
18596;SDS011;9428;50.950;6.912;2022-07-25T09:43:00;9.60;;;5.30;;
18596;SDS011;9428;50.950;6.912;2022-07-25T09:45:49;7.85;;;6.13;;
18596;SDS011;9428;50.950;6.912;2022-07-25T09:48:38;6.40;;;5.30;;
18596;SDS011;9428;50.950;6.912;2022-07-25T09:51:29;7.70;;;5.20;;
18596;SDS011;9428;50.950;6.912;2022-07-25T09:54:18;7.22;;;5.57;;
18596;SDS011;9428;50.950;6.912;2022-07-25T09:57:05;7.13;;;5.72;;
18596;SDS011;9428;50.950;6.912;2022-07-25T09:59:53;7.35;;;5.72;;
18596;SDS011;9428;50.950;6.912;2022-07-25T10:02:49;7.20;;;5.22;;
18596;SDS011;9428;50.950;6.912;2022-07-25T10:05:45;9.60;;;5.40;;
18596;SDS011;9428;50.950;6.912;2022-07-25T10:08:40;8.60;;;5.55;;
18596;SDS011;9428;50.950;6.912;2022-07-25T10:11:29;9.20;;;5.35;;
18596;SDS011;9428;50.950;6.912;2022-07-25T10:14:16;9.75;;;5.97;;
18596;SDS011;9428;50.950;6.912;2022-07-25T10:17:03;9.57;;;5.60;;
18596;SDS011;9428;50.950;6.912;2022-07-25T10:19:53;6.75;;;5.57;;
18596;SDS011;9428;50.950;6.912;2022-07-25T10:22:41;6.50;;;5.45;;
18596;SDS011;9428;50.950;6.912;2022-07-25T10:25:30;6.88;;;5.45;;
18596;SDS011;9428;50.950;6.912;2022-07-25T10:28:17;10.48;;;5.72;;
18596;SDS011;9428;50.950;6.912;2022-07-25T10:31:15;6.30;;;5.10;;
18596;SDS011;9428;50.950;6.912;2022-07-25T10:34:07;9.05;;;6.47;;
18596;SDS011;9428;50.950;6.912;2022-07-25T10:37:08;9.10;;;6.45;;
18596;SDS011;9428;50.950;6.912;2022-07-25T10:39:56;10.38;;;6.28;;
18596;SDS011;9428;50.950;6.912;2022-07-25T10:42:44;7.00;;;5.30;;
18596;SDS011;9428;50.950;6.912;2022-07-25T10:45:37;6.85;;;5.18;;
18596;SDS011;9428;50.950;6.912;2022-07-25T10:48:29;6.32;;;4.78;;
18596;SDS011;9428;50.950;6.912;2022-07-25T10:51:17;5.85;;;4.90;;
18596;SDS011;9428;50.950;6.912;2022-07-25T10:54:15;6.80;;;5.22;;
18596;SDS011;9428;50.950;6.912;2022-07-25T10:57:03;7.28;;;5.18;;
18596;SDS011;9428;50.950;6.912;2022-07-25T10:59:52;7.13;;;4.93;;
18596;SDS011;9428;50.950;6.912;2022-07-25T11:02:39;6.72;;;5.20;;
18596;SDS011;9428;50.950;6.912;2022-07-25T11:05:27;9.10;;;4.80;;
18596;SDS011;9428;50.950;6.912;2022-07-25T11:08:15;6.47;;;4.60;;
18596;SDS011;9428;50.950;6.912;2022-07-25T11:11:04;6.30;;;4.32;;
18596;SDS011;9428;50.950;6.912;2022-07-25T11:13:51;7.60;;;4.68;;
18596;SDS011;9428;50.950;6.912;2022-07-25T11:16:39;6.57;;;5.22;;
18596;SDS011;9428;50.950;6.912;2022-07-25T11:19:27;6.43;;;4.60;;
18596;SDS011;9428;50.950;6.912;2022-07-25T11:22:15;8.70;;;4.93;;
18596;SDS011;9428;50.950;6.912;2022-07-25T11:25:09;6.32;;;4.88;;
18596;SDS011;9428;50.950;6.912;2022-07-25T11:28:00;8.52;;;4.22;;
18596;SDS011;9428;50.950;6.912;2022-07-25T11:30:48;8.80;;;4.57;;
18596;SDS011;9428;50.950;6.912;2022-07-25T11:33:36;6.85;;;4.57;;
18596;SDS011;9428;50.950;6.912;2022-07-25T11:36:24;7.50;;;4.57;;
18596;SDS011;9428;50.950;6.912;2022-07-25T11:39:11;7.00;;;4.22;;
18596;SDS011;9428;50.950;6.912;2022-07-25T11:42:02;8.52;;;4.82;;
18596;SDS011;9428;50.950;6.912;2022-07-25T11:44:53;6.72;;;4.40;;
18596;SDS011;9428;50.950;6.912;2022-07-25T11:47:40;8.00;;;3.70;;
18596;SDS011;9428;50.950;6.912;2022-07-25T11:50:28;5.68;;;3.63;;
18596;SDS011;9428;50.950;6.912;2022-07-25T11:53:15;4.00;;;3.45;;
18596;SDS011;9428;50.950;6.912;2022-07-25T11:56:09;8.98;;;3.80;;
18596;SDS011;9428;50.950;6.912;2022-07-25T11:59:00;3.63;;;3.05;;
18596;SDS011;9428;50.950;6.912;2022-07-25T12:01:49;8.68;;;3.90;;
18596;SDS011;9428;50.950;6.912;2022-07-25T12:04:37;5.03;;;3.60;;
18596;SDS011;9428;50.950;6.912;2022-07-25T12:07:40;5.22;;;3.30;;
18596;SDS011;9428;50.950;6.912;2022-07-25T12:10:30;4.22;;;3.60;;
18596;SDS011;9428;50.950;6.912;2022-07-25T12:13:23;5.13;;;3.30;;
18596;SDS011;9428;50.950;6.912;2022-07-25T12:16:12;7.68;;;3.75;;
18596;SDS011;9428;50.950;6.912;2022-07-25T12:19:01;5.22;;;3.30;;
18596;SDS011;9428;50.950;6.912;2022-07-25T12:21:49;4.03;;;3.47;;
18596;SDS011;9428;50.950;6.912;2022-07-25T12:24:36;4.72;;;3.38;;
18596;SDS011;9428;50.950;6.912;2022-07-25T12:27:23;7.75;;;3.20;;
18596;SDS011;9428;50.950;6.912;2022-07-25T12:30:12;5.13;;;3.72;;
18596;SDS011;9428;50.950;6.912;2022-07-25T12:33:00;7.85;;;3.42;;
18596;SDS011;9428;50.950;6.912;2022-07-25T12:35:48;4.45;;;2.90;;
18596;SDS011;9428;50.950;6.912;2022-07-25T12:38:36;5.60;;;3.10;;
18596;SDS011;9428;50.950;6.912;2022-07-25T12:41:23;6.57;;;2.97;;
18596;SDS011;9428;50.950;6.912;2022-07-25T12:44:10;7.10;;;3.67;;
18596;SDS011;9428;50.950;6.912;2022-07-25T12:46:57;4.40;;;2.47;;
18596;SDS011;9428;50.950;6.912;2022-07-25T12:49:45;7.25;;;2.75;;
18596;SDS011;9428;50.950;6.912;2022-07-25T12:52:33;6.25;;;3.00;;
18596;SDS011;9428;50.950;6.912;2022-07-25T12:55:22;3.63;;;2.40;;
18596;SDS011;9428;50.950;6.912;2022-07-25T12:58:09;7.15;;;3.03;;
18596;SDS011;9428;50.950;6.912;2022-07-25T13:00:59;3.92;;;2.65;;
18596;SDS011;9428;50.950;6.912;2022-07-25T13:03:46;8.50;;;3.38;;
18596;SDS011;9428;50.950;6.912;2022-07-25T13:06:33;5.35;;;3.10;;
18596;SDS011;9428;50.950;6.912;2022-07-25T13:09:22;7.00;;;2.97;;
18596;SDS011;9428;50.950;6.912;2022-07-25T13:12:10;5.65;;;3.00;;
18596;SDS011;9428;50.950;6.912;2022-07-25T13:14:57;7.53;;;2.92;;
18596;SDS011;9428;50.950;6.912;2022-07-25T13:17:45;9.30;;;3.30;;
18596;SDS011;9428;50.950;6.912;2022-07-25T13:20:33;4.93;;;3.50;;
18596;SDS011;9428;50.950;6.912;2022-07-25T13:23:22;5.35;;;3.05;;
18596;SDS011;9428;50.950;6.912;2022-07-25T13:26:10;7.00;;;2.50;;
18596;SDS011;9428;50.950;6.912;2022-07-25T13:28:58;3.28;;;2.55;;
18596;SDS011;9428;50.950;6.912;2022-07-25T13:31:45;4.40;;;2.38;;
18596;SDS011;9428;50.950;6.912;2022-07-25T13:34:33;5.93;;;2.38;;
18596;SDS011;9428;50.950;6.912;2022-07-25T13:37:20;4.00;;;2.70;;
18596;SDS011;9428;50.950;6.912;2022-07-25T13:40:07;3.35;;;2.20;;
18596;SDS011;9428;50.950;6.912;2022-07-25T13:42:56;6.82;;;2.00;;
18596;SDS011;9428;50.950;6.912;2022-07-25T13:45:44;7.90;;;2.80;;
18596;SDS011;9428;50.950;6.912;2022-07-25T13:48:31;4.75;;;2.20;;
18596;SDS011;9428;50.950;6.912;2022-07-25T13:51:19;4.65;;;2.38;;
18596;SDS011;9428;50.950;6.912;2022-07-25T13:54:06;2.97;;;2.00;;
18596;SDS011;9428;50.950;6.912;2022-07-25T13:56:54;2.90;;;1.67;;
18596;SDS011;9428;50.950;6.912;2022-07-25T13:59:42;6.70;;;2.00;;
18596;SDS011;9428;50.950;6.912;2022-07-25T14:02:30;6.63;;;2.45;;
18596;SDS011;9428;50.950;6.912;2022-07-25T14:05:17;3.97;;;2.05;;
18596;SDS011;9428;50.950;6.912;2022-07-25T14:08:04;2.65;;;1.80;;
18596;SDS011;9428;50.950;6.912;2022-07-25T14:10:52;3.00;;;1.88;;
18596;SDS011;9428;50.950;6.912;2022-07-25T14:13:39;4.13;;;2.22;;
18596;SDS011;9428;50.950;6.912;2022-07-25T14:16:29;4.80;;;2.25;;
18596;SDS011;9428;50.950;6.912;2022-07-25T14:19:16;5.43;;;1.98;;
18596;SDS011;9428;50.950;6.912;2022-07-25T14:22:04;3.03;;;1.75;;
18596;SDS011;9428;50.950;6.912;2022-07-25T14:24:51;3.75;;;2.00;;
18596;SDS011;9428;50.950;6.912;2022-07-25T14:27:38;5.97;;;2.15;;
18596;SDS011;9428;50.950;6.912;2022-07-25T14:30:26;3.13;;;2.10;;
18596;SDS011;9428;50.950;6.912;2022-07-25T14:33:14;2.63;;;2.10;;
18596;SDS011;9428;50.950;6.912;2022-07-25T14:36:01;5.35;;;1.90;;
18596;SDS011;9428;50.950;6.912;2022-07-25T14:38:49;3.40;;;1.95;;
18596;SDS011;9428;50.950;6.912;2022-07-25T14:41:36;3.60;;;2.00;;
18596;SDS011;9428;50.950;6.912;2022-07-25T14:44:23;2.65;;;2.08;;
18596;SDS011;9428;50.950;6.912;2022-07-25T14:47:11;7.82;;;1.85;;
18596;SDS011;9428;50.950;6.912;2022-07-25T14:50:00;1.92;;;1.70;;
18596;SDS011;9428;50.950;6.912;2022-07-25T14:52:47;4.25;;;1.92;;
18596;SDS011;9428;50.950;6.912;2022-07-25T14:55:34;4.90;;;1.95;;
18596;SDS011;9428;50.950;6.912;2022-07-25T14:58:22;5.55;;;2.13;;
18596;SDS011;9428;50.950;6.912;2022-07-25T15:01:10;2.63;;;2.00;;
18596;SDS011;9428;50.950;6.912;2022-07-25T15:03:57;2.70;;;1.88;;
18596;SDS011;9428;50.950;6.912;2022-07-25T15:06:46;5.15;;;2.03;;
18596;SDS011;9428;50.950;6.912;2022-07-25T15:09:33;10.52;;;2.08;;
18596;SDS011;9428;50.950;6.912;2022-07-25T15:12:20;6.88;;;2.20;;
18596;SDS011;9428;50.950;6.912;2022-07-25T15:15:08;4.93;;;2.20;;
18596;SDS011;9428;50.950;6.912;2022-07-25T15:17:55;4.13;;;1.98;;
18596;SDS011;9428;50.950;6.912;2022-07-25T15:20:43;3.60;;;2.63;;
18596;SDS011;9428;50.950;6.912;2022-07-25T15:23:34;7.75;;;2.40;;
18596;SDS011;9428;50.950;6.912;2022-07-25T15:26:21;7.78;;;2.50;;
18596;SDS011;9428;50.950;6.912;2022-07-25T15:29:09;5.75;;;2.03;;
18596;SDS011;9428;50.950;6.912;2022-07-25T15:31:57;2.80;;;1.90;;
18596;SDS011;9428;50.950;6.912;2022-07-25T15:34:45;5.55;;;1.90;;
18596;SDS011;9428;50.950;6.912;2022-07-25T15:37:32;3.90;;;2.45;;
18596;SDS011;9428;50.950;6.912;2022-07-25T15:40:21;5.80;;;1.92;;
18596;SDS011;9428;50.950;6.912;2022-07-25T15:43:08;6.72;;;2.67;;
18596;SDS011;9428;50.950;6.912;2022-07-25T15:45:56;7.72;;;2.05;;
18596;SDS011;9428;50.950;6.912;2022-07-25T15:48:43;4.18;;;1.90;;
18596;SDS011;9428;50.950;6.912;2022-07-25T15:51:30;8.65;;;2.35;;
18596;SDS011;9428;50.950;6.912;2022-07-25T15:54:18;5.15;;;2.15;;
18596;SDS011;9428;50.950;6.912;2022-07-25T15:57:06;4.75;;;2.30;;
18596;SDS011;9428;50.950;6.912;2022-07-25T15:59:54;3.58;;;2.03;;
18596;SDS011;9428;50.950;6.912;2022-07-25T16:02:41;4.80;;;1.65;;
18596;SDS011;9428;50.950;6.912;2022-07-25T16:05:29;4.13;;;2.33;;
18596;SDS011;9428;50.950;6.912;2022-07-25T16:08:16;4.68;;;2.15;;
18596;SDS011;9428;50.950;6.912;2022-07-25T16:11:04;4.57;;;1.73;;
18596;SDS011;9428;50.950;6.912;2022-07-25T16:13:52;5.20;;;1.88;;
18596;SDS011;9428;50.950;6.912;2022-07-25T16:16:39;5.63;;;2.10;;
18596;SDS011;9428;50.950;6.912;2022-07-25T16:19:28;10.35;;;1.70;;
18596;SDS011;9428;50.950;6.912;2022-07-25T16:22:15;6.18;;;1.90;;
18596;SDS011;9428;50.950;6.912;2022-07-25T16:25:03;4.85;;;1.75;;
18596;SDS011;9428;50.950;6.912;2022-07-25T16:27:51;2.45;;;1.70;;
18596;SDS011;9428;50.950;6.912;2022-07-25T16:30:39;5.85;;;2.08;;
18596;SDS011;9428;50.950;6.912;2022-07-25T16:33:27;4.20;;;2.08;;
18596;SDS011;9428;50.950;6.912;2022-07-25T16:36:14;5.50;;;2.05;;
18596;SDS011;9428;50.950;6.912;2022-07-25T16:39:01;4.45;;;2.20;;
18596;SDS011;9428;50.950;6.912;2022-07-25T16:41:49;3.47;;;1.73;;
18596;SDS011;9428;50.950;6.912;2022-07-25T16:44:36;7.70;;;2.15;;
18596;SDS011;9428;50.950;6.912;2022-07-25T16:47:25;3.78;;;2.15;;
18596;SDS011;9428;50.950;6.912;2022-07-25T16:50:12;4.43;;;2.25;;
18596;SDS011;9428;50.950;6.912;2022-07-25T16:52:59;4.97;;;1.95;;
18596;SDS011;9428;50.950;6.912;2022-07-25T16:55:46;4.10;;;1.95;;
18596;SDS011;9428;50.950;6.912;2022-07-25T16:58:34;3.25;;;1.80;;
18596;SDS011;9428;50.950;6.912;2022-07-25T17:01:21;3.53;;;1.92;;
18596;SDS011;9428;50.950;6.912;2022-07-25T17:04:10;5.47;;;1.70;;
18596;SDS011;9428;50.950;6.912;2022-07-25T17:06:58;4.13;;;2.10;;